Time;durP1;ratioP1;P1;durP2;ratioP2;P2;SDS_P1;SDS_P2;PMS_P1;PMS_P2;Temp;Humidity;BMP_temperature;BMP_pressure;BME280_temperature;BME280_humidity;BME280_pressure;Samples;Min_cycle;Max_cycle;Signal;HPM_P1;HPM_P2
2022/06/27 00:01:26;;;;;;;11.50;10.52;;;21.10;96.70;;;;;;4938230;28;93315;-71
2022/06/27 00:03:53;;;;;;;10.35;9.45;;;21.10;96.70;;;;;;4921050;28;95550;-71
2022/06/27 00:06:20;;;;;;;10.00;9.00;;;21.10;97.10;;;;;;4937259;28;102842;-71
2022/06/27 00:08:48;;;;;;;12.57;11.50;;;21.00;96.80;;;;;;4921745;28;91793;-71
2022/06/27 00:11:16;;;;;;;12.23;10.15;;;21.00;96.70;;;;;;4936822;28;95796;-71
2022/06/27 00:13:43;;;;;;;10.75;9.70;;;21.00;96.90;;;;;;4936638;28;95723;-71
2022/06/27 00:16:11;;;;;;;11.10;10.10;;;21.00;97.10;;;;;;4937508;28;94868;-71
2022/06/27 00:18:57;;;;;;;10.93;9.80;;;20.90;96.90;;;;;;4937550;28;92488;-71
2022/06/27 00:21:25;;;;;;;10.35;9.35;;;20.90;97.00;;;;;;4937233;28;93207;-71
2022/06/27 00:23:52;;;;;;;12.70;11.70;;;20.90;97.00;;;;;;4938840;28;93147;-71
2022/06/27 00:26:19;;;;;;;12.45;11.27;;;20.90;97.10;;;;;;4937215;28;92451;-71
2022/06/27 00:28:45;;;;;;;10.95;9.85;;;20.90;97.10;;;;;;4920396;28;92487;-71
2022/06/27 00:31:12;;;;;;;10.35;9.35;;;20.80;97.20;;;;;;4937245;28;95961;-71
2022/06/27 00:33:40;;;;;;;10.88;9.98;;;20.80;97.20;;;;;;4937302;28;93970;-71
2022/06/27 00:36:07;;;;;;;12.20;11.10;;;20.80;97.30;;;;;;4938271;28;92487;-71
2022/06/27 00:38:33;;;;;;;11.93;10.88;;;20.70;97.40;;;;;;4920406;28;92572;-71
2022/06/27 00:41:00;;;;;;;10.95;10.05;;;20.70;97.40;;;;;;4935111;28;98128;-71
2022/06/27 00:43:27;;;;;;;10.75;9.68;;;20.70;97.60;;;;;;4936232;28;97997;-71
2022/06/27 00:45:54;;;;;;;10.98;9.00;;;20.70;97.70;;;;;;4937337;28;92440;-71
2022/06/27 00:48:21;;;;;;;11.45;10.23;;;20.70;97.70;;;;;;4936972;28;92530;-71
2022/06/27 00:50:48;;;;;;;10.10;9.10;;;20.70;97.80;;;;;;4936152;28;95706;-71
2022/06/27 00:53:16;;;;;;;11.63;9.15;;;20.60;97.80;;;;;;4920841;28;95649;-71
2022/06/27 00:55:44;;;;;;;10.48;9.57;;;20.60;97.90;;;;;;4904320;28;94272;-71
2022/06/27 00:58:11;;;;;;;10.45;9.40;;;20.60;97.90;;;;;;4938698;28;91706;-72
2022/06/27 01:00:38;;;;;;;10.57;9.65;;;20.60;97.90;;;;;;4938041;28;93310;-71
2022/06/27 01:03:05;;;;;;;10.98;10.07;;;20.60;97.90;;;;;;4936629;28;96012;-71
2022/06/27 01:05:32;;;;;;;10.68;9.57;;;20.60;98.00;;;;;;4936330;28;94884;-71
2022/06/27 01:07:59;;;;;;;10.45;9.50;;;20.60;98.00;;;;;;4904312;28;92546;-71
2022/06/27 01:10:26;;;;;;;10.88;10.02;;;20.60;98.10;;;;;;4938041;28;92986;-71
2022/06/27 01:12:55;;;;;;;10.93;10.02;;;20.60;98.20;;;;;;4935993;28;95240;-71
2022/06/27 01:15:23;;;;;;;9.35;8.55;;;20.60;97.90;;;;;;4904333;28;92347;-71
2022/06/27 01:17:51;;;;;;;10.63;9.65;;;20.60;98.00;;;;;;4920404;28;92598;-71
2022/06/27 01:20:18;;;;;;;9.63;8.63;;;20.60;98.10;;;;;;4936319;28;95800;-71
2022/06/27 01:22:45;;;;;;;10.32;9.43;;;20.60;98.10;;;;;;4936348;28;95730;-71
2022/06/27 01:25:14;;;;;;;12.13;10.43;;;20.60;98.20;;;;;;4936734;28;92564;-71
2022/06/27 01:27:43;;;;;;;10.65;9.73;;;20.60;98.20;;;;;;4919893;28;92929;-71
2022/06/27 01:30:11;;;;;;;11.02;9.93;;;20.60;98.30;;;;;;4935114;28;96975;-71
2022/06/27 01:32:38;;;;;;;11.07;9.98;;;20.50;98.30;;;;;;4936064;28;98161;-71
2022/06/27 01:35:06;;;;;;;14.02;12.70;;;20.50;98.30;;;;;;4935922;28;92460;-71
2022/06/27 01:37:33;;;;;;;14.20;12.80;;;20.50;98.40;;;;;;4919373;28;92768;-71
2022/06/27 01:40:01;;;;;;;16.25;14.65;;;20.50;98.50;;;;;;4935583;28;95525;-72
2022/06/27 01:42:30;;;;;;;16.75;15.20;;;20.50;98.70;;;;;;4935524;28;95086;-71
2022/06/27 01:44:58;;;;;;;17.27;15.77;;;20.40;98.80;;;;;;4935642;28;92535;-71
2022/06/27 01:47:26;;;;;;;17.08;15.48;;;20.40;99.00;;;;;;4919953;28;91837;-71
2022/06/27 01:49:59;;;;;;;17.70;16.00;;;20.40;99.20;;;;;;4935464;28;95153;-71
2022/06/27 01:52:28;;;;;;;16.17;14.77;;;20.40;99.20;;;;;;4936743;28;93328;-71
2022/06/27 01:54:55;;;;;;;17.27;15.68;;;20.30;99.30;;;;;;4934122;28;95500;-71
2022/06/27 01:57:23;;;;;;;15.52;14.23;;;20.30;99.40;;;;;;4903563;28;92573;-71
2022/06/27 01:59:52;;;;;;;15.70;14.15;;;20.30;99.50;;;;;;4935159;28;95342;-71
2022/06/27 02:02:19;;;;;;;17.15;15.57;;;20.30;99.50;;;;;;4919133;28;95586;-73
2022/06/27 02:04:48;;;;;;;14.75;13.38;;;20.30;99.50;;;;;;4934722;28;92459;-74
2022/06/27 02:07:16;;;;;;;16.88;15.38;;;20.30;99.50;;;;;;4919441;28;93253;-74
2022/06/27 02:09:45;;;;;;;15.15;13.75;;;20.30;99.60;;;;;;4934686;28;95668;-74
2022/06/27 02:12:23;;;;;;;16.52;15.10;;;20.30;99.80;;;;;;4935449;28;95319;-74
2022/06/27 02:14:54;;;;;;;16.35;15.02;;;20.30;99.50;;;;;;4935060;28;92504;-72
2022/06/27 02:17:31;;;;;;;15.20;13.77;;;20.30;99.60;;;;;;4935136;28;92551;-72
2022/06/27 02:19:59;;;;;;;17.40;16.00;;;20.30;99.70;;;;;;4917787;28;97487;-72
2022/06/27 02:22:28;;;;;;;16.08;14.57;;;20.30;99.70;;;;;;4903121;28;97868;-71
2022/06/27 02:24:55;;;;;;;14.98;13.68;;;20.30;99.80;;;;;;4935044;28;92528;-71
2022/06/27 02:27:23;;;;;;;15.43;14.13;;;20.20;99.90;;;;;;4934716;28;92515;-71
2022/06/27 02:29:50;;;;;;;15.25;13.75;;;20.20;99.90;;;;;;4934713;28;96354;-71
2022/06/27 02:32:17;;;;;;;16.02;14.63;;;20.20;99.90;;;;;;4934804;28;95570;-72
2022/06/27 02:34:45;;;;;;;14.05;12.77;;;20.20;99.90;;;;;;4934730;28;92470;-71
2022/06/27 02:37:12;;;;;;;14.02;12.70;;;20.20;99.90;;;;;;4935297;28;91785;-71
2022/06/27 02:39:40;;;;;;;14.50;13.30;;;20.20;99.90;;;;;;4934405;28;96030;-71
2022/06/27 02:42:09;;;;;;;12.52;11.43;;;20.20;99.90;;;;;;4934767;28;93022;-71
2022/06/27 02:44:38;;;;;;;11.40;10.50;;;20.20;99.90;;;;;;4933751;28;94941;-71
2022/06/27 02:47:05;;;;;;;12.10;11.05;;;20.10;99.90;;;;;;4918795;28;92464;-71
2022/06/27 02:49:33;;;;;;;13.10;11.80;;;20.10;99.90;;;;;;4935834;28;97145;-72
2022/06/27 02:52:24;;;;;;;13.23;11.93;;;20.10;99.90;;;;;;4934324;28;95285;-71
2022/06/27 02:55:23;;;;;;;12.93;11.70;;;20.20;99.90;;;;;;4933938;28;92560;-71
2022/06/27 02:58:21;;;;;;;14.73;13.43;;;20.10;99.90;;;;;;4919245;28;92592;-72
2022/06/27 03:00:50;;;;;;;12.15;11.15;;;20.10;99.90;;;;;;4934079;28;95794;-72
2022/06/27 03:03:17;;;;;;;12.95;11.85;;;19.90;99.90;;;;;;4934851;28;95482;-71
2022/06/27 03:06:04;;;;;;;11.23;10.18;;;19.90;99.90;;;;;;4918606;28;93048;-71
2022/06/27 03:08:46;;;;;;;11.38;10.20;;;19.90;99.90;;;;;;4934218;28;92672;-71
2022/06/27 03:11:18;;;;;;;7.32;6.72;;;19.80;99.90;;;;;;4933081;28;98035;-71
2022/06/27 03:13:49;;;;;;;7.38;6.78;;;19.70;99.90;;;;;;4934562;28;97563;-71
2022/06/27 03:16:17;;;;;;;6.47;5.97;;;19.60;99.90;;;;;;4935110;28;92469;-72
2022/06/27 03:18:45;;;;;;;5.80;5.28;;;19.50;99.90;;;;;;4921987;28;92527;-71
2022/06/27 03:21:39;;;;;;;6.13;5.50;;;19.40;99.90;;;;;;4938177;28;94080;-71
2022/06/27 03:24:06;;;;;;;5.70;5.25;;;19.20;99.90;;;;;;4921955;28;95294;-71
2022/06/27 03:26:33;;;;;;;6.20;5.70;;;19.10;99.90;;;;;;4938496;28;93400;-71
2022/06/27 03:29:03;;;;;;;6.18;5.60;;;19.00;99.90;;;;;;4938432;28;91802;-71
2022/06/27 03:31:31;;;;;;;6.30;5.82;;;18.90;99.90;;;;;;4938032;28;95785;-71
2022/06/27 03:33:58;;;;;;;5.25;4.72;;;18.80;99.90;;;;;;4937798;28;95502;-71
2022/06/27 03:36:38;;;;;;;3.72;3.42;;;18.80;99.90;;;;;;4922605;28;95545;-72
2022/06/27 03:39:05;;;;;;;4.47;4.05;;;18.70;99.90;;;;;;4937745;28;92549;-71
2022/06/27 03:41:32;;;;;;;4.05;3.67;;;18.60;99.90;;;;;;4937812;28;95730;-71
2022/06/27 03:43:59;;;;;;;6.60;5.43;;;18.60;99.90;;;;;;4937695;28;95278;-72
2022/06/27 03:46:27;;;;;;;5.43;5.00;;;18.50;99.90;;;;;;4938116;28;92476;-71
2022/06/27 03:51:47;;;;;;;3.75;3.45;;;18.50;99.90;;;;;;4937797;28;92969;-71
2022/06/27 03:54:14;;;;;;;5.25;4.85;;;18.40;99.90;;;;;;4922118;28;95540;-72
2022/06/27 03:56:42;;;;;;;4.50;4.10;;;18.40;99.90;;;;;;4905968;28;92397;-72
2022/06/27 03:59:09;;;;;;;4.82;4.43;;;18.40;99.90;;;;;;4921373;28;92514;-71
2022/06/27 04:01:37;;;;;;;5.90;5.30;;;18.40;99.90;;;;;;4936283;28;97995;-71
2022/06/27 04:04:04;;;;;;;4.82;4.32;;;18.40;99.90;;;;;;4937316;28;97655;-71
2022/06/27 04:06:33;;;;;;;5.97;5.47;;;18.40;99.90;;;;;;4937867;28;92467;-71
2022/06/27 04:09:00;;;;;;;5.50;5.00;;;18.40;99.90;;;;;;4936943;28;92555;-71
2022/06/27 04:11:27;;;;;;;4.40;4.10;;;18.40;99.90;;;;;;4937321;28;95749;-71
2022/06/27 04:13:57;;;;;;;4.57;4.18;;;18.40;99.90;;;;;;4937233;28;95045;-71
2022/06/27 04:16:53;;;;;;;5.68;4.35;;;18.40;99.90;;;;;;4918651;28;92613;-71
2022/06/27 04:19:43;;;;;;;6.45;5.28;;;18.40;99.90;;;;;;4937402;28;91777;-71
2022/06/27 04:22:28;;;;;;;4.95;4.55;;;18.40;99.90;;;;;;4937374;28;95485;-72
2022/06/27 04:24:56;;;;;;;5.75;4.50;;;18.40;99.90;;;;;;4938347;28;92529;-71
2022/06/27 04:27:43;;;;;;;8.38;4.95;;;18.40;99.90;;;;;;4937169;28;95150;-72
2022/06/27 04:30:20;;;;;;;4.88;4.38;;;18.40;99.90;;;;;;4937148;28;92604;-72
2022/06/27 04:32:50;;;;;;;4.97;4.53;;;18.50;99.90;;;;;;4922364;28;96126;-71
2022/06/27 04:35:18;;;;;;;5.25;4.93;;;18.40;99.90;;;;;;4936808;28;95388;-71
2022/06/27 04:37:45;;;;;;;4.25;3.95;;;18.50;99.90;;;;;;4937301;28;92732;-72
2022/06/27 04:40:38;;;;;;;4.20;3.90;;;18.50;99.90;;;;;;4929013;28;92679;-72
2022/06/27 04:43:08;;;;;;;5.72;5.30;;;18.50;99.90;;;;;;4936783;28;95577;-71
2022/06/27 04:45:35;;;;;;;4.90;4.47;;;18.50;99.90;;;;;;4937365;28;95461;-71
2022/06/27 04:48:29;;;;;;;4.82;4.43;;;18.60;99.90;;;;;;4937130;28;92615;-71
2022/06/27 04:50:59;;;;;;;5.05;4.57;;;18.50;99.90;;;;;;4936708;28;92509;-72
2022/06/27 04:53:27;;;;;;;6.15;5.55;;;18.60;99.90;;;;;;4919648;28;98317;-72
2022/06/27 04:55:54;;;;;;;4.30;4.00;;;18.60;99.90;;;;;;4938184;28;95396;-72
2022/06/27 04:58:22;;;;;;;5.75;5.45;;;18.60;99.90;;;;;;4937105;28;92936;-72
2022/06/27 05:00:49;;;;;;;5.18;4.68;;;18.70;99.90;;;;;;4905058;28;92512;-71
2022/06/27 05:03:42;;;;;;;4.60;4.30;;;18.70;99.90;;;;;;4936592;28;95316;-72
2022/06/27 05:06:18;;;;;;;4.25;3.85;;;18.60;99.90;;;;;;4936645;28;94808;-71
2022/06/27 05:08:45;;;;;;;5.22;4.93;;;18.70;99.90;;;;;;4936239;28;93219;-71
2022/06/27 05:11:14;;;;;;;4.78;4.47;;;18.70;99.90;;;;;;4936934;28;91774;-71
2022/06/27 05:13:42;;;;;;;4.30;4.00;;;18.70;99.90;;;;;;4936563;28;95391;-71
2022/06/27 05:16:25;;;;;;;;;;;18.70;99.90;;;;;;4937044;28;94913;-71
2022/06/27 05:18:52;;;;;;;4.30;3.90;;;18.70;99.90;;;;;;4920531;28;94780;-71
2022/06/27 05:21:39;;;;;;;5.05;4.65;;;18.60;99.90;;;;;;4936905;28;92669;-72
2022/06/27 05:24:06;;;;;;;5.07;4.60;;;18.70;99.90;;;;;;4920148;28;95526;-72
2022/06/27 05:26:35;;;;;;;6.40;3.88;;;18.70;99.90;;;;;;4936350;28;95460;-71
2022/06/27 05:29:02;;;;;;;5.45;5.15;;;18.70;99.90;;;;;;4920362;28;92494;-71
2022/06/27 05:31:30;;;;;;;4.80;4.10;;;18.70;99.90;;;;;;4920534;28;92509;-71
2022/06/27 05:33:57;;;;;;;4.13;3.72;;;18.80;99.90;;;;;;4920168;28;95185;-71
2022/06/27 05:36:23;;;;;;;5.93;5.53;;;18.80;99.90;;;;;;4936844;28;93064;-71
2022/06/27 05:38:50;;;;;;;5.70;5.35;;;18.80;99.90;;;;;;4937722;28;92415;-71
2022/06/27 05:41:18;;;;;;;4.88;4.38;;;18.90;99.90;;;;;;4935055;28;92528;-71
2022/06/27 05:43:47;;;;;;;4.90;4.50;;;18.90;99.90;;;;;;4888043;28;97615;-71
2022/06/27 05:46:15;;;;;;;4.50;4.20;;;19.00;99.90;;;;;;4935736;28;98013;-71
2022/06/27 05:49:11;;;;;;;;;;;19.00;99.90;;;;;;4930124;28;92544;-72
2022/06/27 05:51:50;;;;;;;5.25;4.85;;;19.00;99.90;;;;;;4937429;28;92423;-71
2022/06/27 05:54:18;;;;;;;4.55;4.00;;;19.00;99.90;;;;;;4935692;28;95428;-71
2022/06/27 05:56:45;;;;;;;5.85;5.40;;;19.20;99.90;;;;;;4936135;28;92968;-71
2022/06/27 05:59:12;;;;;;;5.78;5.00;;;19.30;99.90;;;;;;4919645;28;92544;-72
2022/06/27 06:01:40;;;;;;;4.10;3.45;;;19.40;99.90;;;;;;4936217;28;91811;-71
2022/06/27 06:04:08;;;;;;;5.60;5.13;;;19.50;99.90;;;;;;4935310;28;95144;-72
2022/06/27 06:06:37;;;;;;;4.55;4.20;;;19.50;99.90;;;;;;4935751;28;95456;-72
2022/06/27 06:09:04;;;;;;;5.13;4.82;;;19.60;99.90;;;;;;4934239;28;94866;-72
2022/06/27 06:11:32;;;;;;;5.50;4.43;;;19.70;99.90;;;;;;4920021;28;92509;-72
2022/06/27 06:13:59;;;;;;;4.50;4.10;;;19.70;99.90;;;;;;4935700;28;95071;-71
2022/06/27 06:16:26;;;;;;;3.65;3.35;;;19.80;99.90;;;;;;4935475;28;95498;-72
2022/06/27 06:18:54;;;;;;;5.07;4.68;;;19.90;99.90;;;;;;4935857;28;92497;-72
2022/06/27 06:21:22;;;;;;;3.70;3.40;;;19.90;99.90;;;;;;4935406;28;92551;-72
2022/06/27 06:23:53;;;;;;;4.57;4.15;;;20.00;99.90;;;;;;4936777;28;93308;-71
2022/06/27 06:26:20;;;;;;;4.93;4.47;;;20.00;99.90;;;;;;4937049;28;92957;-72
2022/06/27 06:28:49;;;;;;;5.10;4.00;;;19.90;99.90;;;;;;4919503;28;92590;-71
2022/06/27 06:31:23;;;;;;;4.57;4.28;;;20.00;99.90;;;;;;4935306;28;92579;-72
2022/06/27 06:33:59;;;;;;;4.72;4.43;;;20.00;99.90;;;;;;4934140;28;98038;-71
2022/06/27 06:36:26;;;;;;;4.63;4.20;;;20.00;99.90;;;;;;4919236;28;97851;-72
2022/06/27 06:38:54;;;;;;;4.90;4.50;;;20.00;99.90;;;;;;4919396;28;92498;-72
2022/06/27 06:41:22;;;;;;;4.82;4.50;;;20.00;99.90;;;;;;4919342;28;92514;-72
2022/06/27 06:43:49;;;;;;;4.20;3.80;;;20.00;99.90;;;;;;4935163;28;95738;-71
2022/06/27 06:46:39;;;;;;;4.40;4.10;;;20.00;99.90;;;;;;4934791;28;93823;-71
2022/06/27 06:49:10;;;;;;;5.28;4.88;;;19.90;99.90;;;;;;4935391;28;92621;-72
2022/06/27 06:51:39;;;;;;;5.78;5.45;;;19.90;99.90;;;;;;4936937;28;91737;-72
2022/06/27 06:54:08;;;;;;;4.95;4.50;;;20.00;99.90;;;;;;4936295;28;93056;-72
2022/06/27 06:56:36;;;;;;;5.78;5.25;;;20.00;99.90;;;;;;4918646;28;93148;-72
2022/06/27 06:59:04;;;;;;;5.25;4.85;;;20.00;99.90;;;;;;4934240;28;94772;-72
2022/06/27 07:01:35;;;;;;;5.47;5.05;;;20.00;99.90;;;;;;4935072;28;92566;-72
2022/06/27 07:04:02;;;;;;;6.07;5.57;;;20.00;99.90;;;;;;4919019;28;95894;-71
2022/06/27 07:06:31;;;;;;;6.00;5.60;;;20.10;99.90;;;;;;4934597;28;92745;-71
2022/06/27 07:08:59;;;;;;;6.18;5.70;;;20.20;99.90;;;;;;4936062;28;92421;-71
2022/06/27 07:11:31;;;;;;;5.60;5.22;;;20.30;99.90;;;;;;4936172;28;92538;-72
2022/06/27 07:13:59;;;;;;;5.60;5.10;;;20.30;99.90;;;;;;4936261;28;93800;-72
2022/06/27 07:16:26;;;;;;;6.15;5.75;;;20.30;99.90;;;;;;4936276;28;93045;-72
2022/06/27 07:18:55;;;;;;;5.70;5.30;;;20.30;99.90;;;;;;4936350;28;92341;-72
2022/06/27 07:21:25;;;;;;;6.80;6.28;;;20.30;99.90;;;;;;4934778;28;92485;-72
2022/06/27 07:23:53;;;;;;;7.32;6.82;;;20.30;99.90;;;;;;4935028;28;95400;-72
2022/06/27 07:26:21;;;;;;;6.85;6.35;;;20.30;99.90;;;;;;4935750;28;95458;-72
2022/06/27 07:28:49;;;;;;;8.77;7.85;;;20.30;99.90;;;;;;4936349;28;93011;-72
2022/06/27 07:31:16;;;;;;;11.10;6.78;;;20.30;99.90;;;;;;4918858;28;92492;-72
2022/06/27 07:33:46;;;;;;;5.60;5.20;;;20.30;99.90;;;;;;4934690;28;92435;-72
2022/06/27 07:36:17;;;;;;;6.85;6.25;;;20.40;99.90;;;;;;4934704;28;93049;-72
2022/06/27 07:38:46;;;;;;;6.03;5.63;;;20.30;99.90;;;;;;4936289;28;92438;-71
2022/06/27 07:41:16;;;;;;;6.15;5.75;;;20.30;99.90;;;;;;4936304;28;91701;-72
2022/06/27 07:43:46;;;;;;;6.45;6.00;;;20.30;99.90;;;;;;4934295;28;94937;-72
2022/06/27 07:46:17;;;;;;;5.38;4.90;;;20.30;99.90;;;;;;4934856;28;93087;-72
2022/06/27 07:48:46;;;;;;;6.15;5.75;;;20.40;99.90;;;;;;4933795;28;95343;-71
2022/06/27 07:51:19;;;;;;;6.28;5.82;;;20.40;99.90;;;;;;4918386;28;92551;-72
2022/06/27 07:53:48;;;;;;;6.70;6.30;;;20.50;99.90;;;;;;4934870;28;93410;-72
2022/06/27 07:56:17;;;;;;;5.45;5.05;;;20.60;99.90;;;;;;4935101;28;111177;-71
2022/06/27 07:58:55;;;;;;;5.60;5.20;;;20.70;99.90;;;;;;4934479;28;92466;-72
2022/06/27 08:01:23;;;;;;;5.63;5.22;;;20.90;99.90;;;;;;4935743;28;92445;-72
2022/06/27 08:03:51;;;;;;;6.65;5.78;;;21.00;99.90;;;;;;4936724;28;111242;-71
2022/06/27 08:06:27;;;;;;;5.80;5.30;;;21.30;99.90;;;;;;4939215;28;93156;-71
2022/06/27 08:09:01;;;;;;;5.38;4.53;;;21.50;99.60;;;;;;4937556;28;92425;-72
2022/06/27 08:11:30;;;;;;;5.60;5.10;;;21.90;99.20;;;;;;4939036;28;92467;-72
2022/06/27 08:14:03;;;;;;;8.15;7.45;;;22.10;98.80;;;;;;4937595;28;95573;-72
2022/06/27 08:16:31;;;;;;;8.10;7.57;;;22.30;98.60;;;;;;4938730;28;95339;-72
2022/06/27 08:19:00;;;;;;;8.23;7.53;;;22.40;98.30;;;;;;4905747;28;92986;-72
2022/06/27 08:21:27;;;;;;;9.93;9.23;;;22.60;98.40;;;;;;4938582;28;92423;-72
2022/06/27 08:23:59;;;;;;;7.55;6.95;;;22.70;97.70;;;;;;4938753;28;93426;-72
2022/06/27 08:26:28;;;;;;;9.13;8.43;;;22.70;97.70;;;;;;4938843;28;93102;-72
2022/06/27 08:28:56;;;;;;;7.93;7.32;;;22.70;97.70;;;;;;4921742;28;92457;-72
2022/06/27 08:31:23;;;;;;;9.70;9.00;;;22.60;97.50;;;;;;4939177;28;91734;-72
2022/06/27 08:33:55;;;;;;;8.77;7.97;;;22.50;97.70;;;;;;4938577;28;92448;-71
2022/06/27 08:36:23;;;;;;;8.13;7.53;;;22.50;98.00;;;;;;4937030;28;95700;-71
2022/06/27 08:38:50;;;;;;;10.50;9.57;;;22.50;98.00;;;;;;4936253;28;94953;-72
2022/06/27 08:41:20;;;;;;;9.82;9.05;;;22.50;97.70;;;;;;4938721;28;92448;-72
2022/06/27 08:43:48;;;;;;;9.25;8.65;;;22.60;97.80;;;;;;4936823;28;96090;-71
2022/06/27 08:46:18;;;;;;;8.23;7.63;;;22.70;97.60;;;;;;4936635;28;108164;-72
2022/06/27 08:48:47;;;;;;;7.03;6.53;;;22.80;97.50;;;;;;4938230;28;92727;-72
2022/06/27 08:51:14;;;;;;;8.27;7.63;;;22.80;97.40;;;;;;4938351;28;92416;-71
2022/06/27 08:53:42;;;;;;;8.38;7.85;;;22.80;97.20;;;;;;4937979;28;92980;-72
2022/06/27 08:56:12;;;;;;;7.40;6.80;;;22.80;97.20;;;;;;4938516;28;92914;-72
2022/06/27 08:58:42;;;;;;;7.20;6.70;;;22.80;97.00;;;;;;4938103;28;92436;-72
2022/06/27 09:01:12;;;;;;;8.23;7.63;;;22.70;96.70;;;;;;4920881;28;92414;-72
2022/06/27 09:03:39;;;;;;;8.30;7.70;;;22.60;96.80;;;;;;4935330;28;96655;-72
2022/06/27 09:06:10;;;;;;;7.82;7.32;;;22.50;97.20;;;;;;4936398;28;97993;-72
2022/06/27 09:08:55;;;;;;;7.05;6.55;;;22.30;97.30;;;;;;4936385;28;92544;-71
2022/06/27 09:11:30;;;;;;;7.45;6.82;;;22.30;96.60;;;;;;4938323;28;92431;-72
2022/06/27 09:13:58;;;;;;;7.88;7.38;;;22.00;97.20;;;;;;4919958;28;95701;-72
2022/06/27 09:16:26;;;;;;;7.32;6.68;;;21.90;97.40;;;;;;4937262;28;92420;-72
2022/06/27 09:18:56;;;;;;;7.22;6.65;;;21.90;97.70;;;;;;4937053;28;92507;-72
2022/06/27 09:21:24;;;;;;;8.63;7.93;;;21.80;97.70;;;;;;4937208;28;91791;-72
2022/06/27 09:24:00;;;;;;;7.28;6.65;;;21.80;98.00;;;;;;4936059;28;95797;-72
2022/06/27 09:26:34;;;;;;;7.22;6.72;;;21.90;97.90;;;;;;4937503;28;93226;-72
2022/06/27 09:29:06;;;;;;;7.57;7.07;;;21.90;97.70;;;;;;4935314;28;94869;-72
2022/06/27 09:31:37;;;;;;;7.28;6.78;;;21.90;97.90;;;;;;4936292;28;92499;-72
2022/06/27 09:34:18;;;;;;;7.00;6.43;;;21.90;97.80;;;;;;4937720;28;93503;-72
2022/06/27 09:36:50;;;;;;;6.90;6.40;;;21.90;97.60;;;;;;4937039;28;92490;-71
2022/06/27 09:39:19;;;;;;;6.35;5.82;;;21.80;97.80;;;;;;4925768;28;93438;-71
2022/06/27 09:41:56;;;;;;;5.27;4.93;;;21.80;97.80;;;;;;4058762;28;10000485;-72
2022/06/27 09:44:33;;;;;;;5.97;5.47;;;21.70;98.00;;;;;;4873725;28;92929;-72
2022/06/27 09:47:08;;;;;;;6.10;5.65;;;21.70;98.20;;;;;;4932162;28;92149;-73
2022/06/27 09:49:38;;;;;;;7.18;6.57;;;21.70;98.10;;;;;;4931551;28;93211;-73
2022/06/27 09:52:06;;;;;;;6.57;6.05;;;21.70;98.20;;;;;;4919069;28;92542;-71
2022/06/27 09:54:35;;;;;;;7.15;6.55;;;21.80;98.30;;;;;;4932839;28;104833;-71
2022/06/27 09:57:04;;;;;;;7.80;7.10;;;21.80;98.10;;;;;;4937752;28;92525;-71
2022/06/27 09:59:37;;;;;;;;;;;21.90;98.10;;;;;;4937905;28;93259;-72
2022/06/27 10:02:05;;;;;;;6.50;6.00;;;21.90;98.30;;;;;;4939739;28;94324;-73
2022/06/27 10:04:35;;;;;;;7.15;6.65;;;21.90;98.30;;;;;;4939999;28;92486;-72
2022/06/27 10:07:05;;;;;;;8.05;7.25;;;22.20;98.00;;;;;;4938878;28;93344;-71
2022/06/27 10:09:35;;;;;;;7.50;6.90;;;22.40;97.70;;;;;;4938424;28;94397;-72
2022/06/27 10:12:31;;;;;;;8.70;8.00;;;22.50;97.60;;;;;;4936813;28;92860;-72
2022/06/27 10:15:10;;;;;;;7.38;6.85;;;22.70;97.40;;;;;;4938206;28;92443;-71
2022/06/27 10:17:41;;;;;;;9.07;8.27;;;22.60;97.50;;;;;;4926762;28;93867;-71
2022/06/27 10:20:29;;;;;;;8.95;7.80;;;22.60;97.40;;;;;;4935920;28;98227;-71
2022/06/27 10:23:11;;;;;;;7.38;6.88;;;22.70;97.50;;;;;;4937757;28;95597;-71
2022/06/27 10:25:44;;;;;;;9.77;7.57;;;22.80;97.00;;;;;;4919823;28;93485;-71
2022/06/27 10:28:12;;;;;;;7.80;7.30;;;22.90;96.80;;;;;;4939702;28;93134;-71
2022/06/27 10:30:44;;;;;;;8.27;7.70;;;22.90;96.70;;;;;;4938892;28;96000;-71
2022/06/27 10:33:26;;;;;;;7.77;7.07;;;23.10;96.80;;;;;;4940486;28;93013;-71
2022/06/27 10:35:59;;;;;;;8.40;7.80;;;23.20;96.30;;;;;;4939492;28;93194;-71
2022/06/27 10:38:33;;;;;;;7.32;6.72;;;23.30;96.20;;;;;;4922972;28;93379;-71
2022/06/27 10:41:02;;;;;;;6.78;6.28;;;23.30;96.10;;;;;;4938430;28;93226;-71
2022/06/27 10:43:35;;;;;;;6.97;6.40;;;23.30;95.80;;;;;;4939904;28;92926;-73
2022/06/27 10:46:11;;;;;;;7.10;6.60;;;23.30;95.60;;;;;;4954214;28;95140;-72
2022/06/27 10:48:46;;;;;;;7.28;6.07;;;23.30;95.60;;;;;;4956517;28;92427;-72
2022/06/27 10:51:21;;;;;;;7.68;7.18;;;23.40;95.50;;;;;;4954707;28;95769;-72
2022/06/27 10:53:50;;;;;;;7.72;7.15;;;23.50;95.30;;;;;;4955668;28;92965;-72
2022/06/27 10:56:29;;;;;;;7.13;6.63;;;23.60;95.40;;;;;;4954955;28;92574;-72
2022/06/27 10:58:57;;;;;;;6.75;6.10;;;23.80;94.90;;;;;;4955866;28;92546;-72
2022/06/27 11:01:25;;;;;;;7.72;7.13;;;23.90;94.70;;;;;;4938430;28;95744;-71
2022/06/27 11:03:52;;;;;;;7.55;7.05;;;24.00;94.70;;;;;;4956223;28;92855;-72
2022/06/27 11:06:19;;;;;;;7.38;6.78;;;24.00;94.60;;;;;;4955976;28;92436;-72
2022/06/27 11:08:48;;;;;;;6.10;5.53;;;24.10;94.50;;;;;;4955794;28;93032;-72
2022/06/27 11:11:27;;;;;;;5.90;5.40;;;24.10;94.30;;;;;;4954699;28;95662;-72
2022/06/27 11:13:55;;;;;;;6.97;6.47;;;24.10;94.20;;;;;;4954589;28;95411;-72
2022/06/27 11:16:24;;;;;;;6.07;5.57;;;24.10;94.10;;;;;;4955887;28;92334;-72
2022/06/27 11:18:52;;;;;;;6.43;6.00;;;24.20;94.10;;;;;;4954509;28;92639;-72
2022/06/27 11:21:25;;;;;;;5.00;4.53;;;24.30;94.10;;;;;;4955638;28;93342;-72
2022/06/27 11:24:02;;;;;;;5.05;4.75;;;24.50;93.90;;;;;;4955523;28;92897;-72
2022/06/27 11:26:36;;;;;;;6.70;6.25;;;24.60;93.40;;;;;;4955965;28;92550;-72
2022/06/27 11:32:05;;;;;;;6.18;5.88;;;25.10;92.80;;;;;;4954119;28;95950;-72
2022/06/27 11:34:40;;;;;;;6.00;5.50;;;25.30;92.10;;;;;;4955800;28;92536;-72
2022/06/27 11:37:13;;;;;;;5.22;4.72;;;25.40;92.10;;;;;;4954354;28;94926;-72
2022/06/27 11:39:41;;;;;;;4.60;4.20;;;25.60;91.70;;;;;;4958882;28;92453;-72
2022/06/27 11:42:10;;;;;;;5.55;5.25;;;25.70;91.80;;;;;;4958774;28;93262;-72
2022/06/27 11:45:02;;;;;;;5.97;5.57;;;25.90;91.30;;;;;;4958921;28;93032;-72
2022/06/27 11:47:29;;;;;;;5.57;5.28;;;26.20;90.50;;;;;;4958569;28;92462;-72
2022/06/27 11:50:05;;;;;;;6.15;5.65;;;26.30;90.60;;;;;;4958771;28;92469;-72
2022/06/27 11:52:51;;;;;;;5.90;5.45;;;26.30;90.10;;;;;;4958650;28;93157;-72
2022/06/27 11:55:20;;;;;;;5.18;4.75;;;26.20;90.10;;;;;;4959219;28;96320;-72
2022/06/27 11:57:49;;;;;;;5.07;4.78;;;26.10;89.60;;;;;;4957503;28;92632;-72
2022/06/27 12:00:28;;;;;;;3.50;3.20;;;26.10;89.10;;;;;;4958585;28;92565;-72
2022/06/27 12:03:09;;;;;;;4.38;4.07;;;26.30;87.80;;;;;;4957389;28;95772;-72
2022/06/27 12:05:38;;;;;;;4.15;3.78;;;26.40;86.70;;;;;;4957091;28;97902;-72
2022/06/27 12:08:07;;;;;;;5.57;5.18;;;26.40;87.20;;;;;;4940456;28;93234;-72
2022/06/27 12:13:40;;;;;;;4.97;4.57;;;26.60;87.30;;;;;;4958402;28;94226;-72
2022/06/27 12:16:11;;;;;;;5.50;5.10;;;26.40;87.90;;;;;;4958325;28;93226;-72
2022/06/27 12:18:41;;;;;;;6.43;6.03;;;26.30;88.00;;;;;;4957571;28;92540;-72
2022/06/27 12:21:10;;;;;;;4.55;4.25;;;26.20;88.10;;;;;;4958525;28;91944;-72
2022/06/27 12:23:37;;;;;;;4.95;4.65;;;26.00;88.10;;;;;;4957933;28;101220;-72
2022/06/27 12:26:05;;;;;;;4.13;3.72;;;25.90;88.50;;;;;;4956544;28;94556;-72
2022/06/27 12:28:32;;;;;;;5.22;4.93;;;25.80;88.90;;;;;;4957355;28;94804;-72
2022/06/27 12:30:59;;;;;;;5.53;5.13;;;25.70;89.30;;;;;;4956661;28;92392;-72
2022/06/27 12:33:26;;;;;;;5.20;4.80;;;25.60;89.20;;;;;;4957053;28;93272;-72
2022/06/27 12:35:54;;;;;;;4.00;3.80;;;25.50;90.10;;;;;;4958053;28;93084;-72
2022/06/27 12:38:21;;;;;;;5.40;5.10;;;25.40;90.30;;;;;;4956857;28;92489;-72
2022/06/27 12:40:48;;;;;;;5.03;4.72;;;25.40;90.40;;;;;;4956715;28;92523;-72
2022/06/27 12:43:15;;;;;;;4.78;4.32;;;25.30;90.90;;;;;;4957911;28;93333;-72
2022/06/27 12:45:42;;;;;;;5.78;5.30;;;25.30;90.70;;;;;;4958385;28;92944;-72
2022/06/27 12:48:14;;;;;;;5.13;4.68;;;25.20;91.10;;;;;;4956736;28;92456;-72
2022/06/27 12:50:41;;;;;;;5.38;4.97;;;25.10;91.50;;;;;;4957717;28;92405;-72
2022/06/27 12:53:08;;;;;;;5.03;4.63;;;25.00;91.40;;;;;;4954851;28;98130;-72
2022/06/27 12:55:35;;;;;;;6.78;6.18;;;25.00;91.70;;;;;;4957673;28;94243;-72
2022/06/27 12:58:02;;;;;;;4.68;4.28;;;24.90;91.90;;;;;;4957199;28;99554;-72
2022/06/27 13:00:29;;;;;;;5.20;4.80;;;24.90;91.90;;;;;;4956355;28;92502;-72
2022/06/27 13:02:56;;;;;;;4.82;4.35;;;24.90;91.90;;;;;;4957621;28;93150;-72
2022/06/27 13:05:29;;;;;;;4.50;4.10;;;24.90;91.70;;;;;;4956595;28;92936;-72
2022/06/27 13:07:56;;;;;;;5.00;4.60;;;24.90;91.80;;;;;;4957397;28;92547;-72
2022/06/27 13:10:23;;;;;;;4.25;3.90;;;24.80;91.90;;;;;;4958221;28;91814;-72